createdAt,value
2023-04-15T00:01:38.478Z,88.66
2023-04-15T00:04:05.435Z,88.54
2023-04-15T00:06:32.401Z,88.73
2023-04-15T00:08:59.514Z,88.51
2023-04-15T00:11:26.696Z,87.95
2023-04-15T00:13:53.544Z,86.92
2023-04-15T00:16:20.644Z,87.01
2023-04-15T00:18:47.791Z,87.24
2023-04-15T00:21:14.640Z,87.19
2023-04-15T00:23:41.859Z,86.85
2023-04-15T00:26:08.917Z,86.30
2023-04-15T00:28:35.795Z,86.96
2023-04-15T00:31:02.659Z,88.21
2023-04-15T00:33:29.535Z,88.08
2023-04-15T00:35:56.578Z,87.62
2023-04-15T00:38:23.389Z,88.51
2023-04-15T00:40:50.583Z,88.45
2023-04-15T00:43:17.802Z,87.67
2023-04-15T00:45:44.793Z,87.65
2023-04-15T00:48:11.972Z,88.14
2023-04-15T00:50:39.255Z,88.54
2023-04-15T00:53:06.466Z,88.72
2023-04-15T00:55:33.445Z,89.10
2023-04-15T00:58:00.325Z,90.51
2023-04-15T01:00:27.571Z,90.33
2023-04-15T01:02:54.588Z,90.20
2023-04-15T01:05:21.877Z,91.07
2023-04-15T01:07:49.087Z,90.56
2023-04-15T01:10:16.130Z,89.87
2023-04-15T01:12:43.516Z,89.07
2023-04-15T01:15:11.288Z,89.55
2023-04-15T01:17:39.550Z,89.13
2023-04-15T01:20:10.267Z,89.15
2023-04-15T01:22:37.219Z,89.27
2023-04-15T01:25:12.588Z,89.70
2023-04-15T01:27:41.304Z,89.73
2023-04-15T01:30:10.757Z,90.40
2023-04-15T01:32:38.189Z,90.56
2023-04-15T01:35:05.610Z,90.83
2023-04-15T01:37:32.926Z,90.40
2023-04-15T01:39:59.944Z,90.10
2023-04-15T01:42:27.904Z,90.82
2023-04-15T01:44:55.024Z,90.85
2023-04-15T01:47:21.912Z,89.87
2023-04-15T01:49:48.814Z,90.14
2023-04-15T01:52:15.951Z,90.43
2023-04-15T01:54:42.804Z,89.92
2023-04-15T01:57:10.099Z,90.18
2023-04-15T01:59:37.437Z,90.58
2023-04-15T02:02:04.884Z,91.04
2023-04-15T02:04:31.994Z,91.43
2023-04-15T02:06:58.869Z,91.21
2023-04-15T02:09:25.800Z,91.55
2023-04-15T02:11:54.415Z,92.10
2023-04-15T02:14:21.329Z,92.96
2023-04-15T02:16:48.228Z,92.69
2023-04-15T02:19:15.645Z,91.98
2023-04-15T02:21:42.554Z,91.83
2023-04-15T02:24:09.491Z,91.91
2023-04-15T02:26:36.438Z,92.17
2023-04-15T02:29:04.301Z,92.04
2023-04-15T02:31:34.253Z,91.83
2023-04-15T02:34:03.197Z,91.44
2023-04-15T02:36:31.930Z,92.45
2023-04-15T02:38:59.017Z,91.68
2023-04-15T02:41:28.005Z,91.94
2023-04-15T02:43:55.199Z,93.39
2023-04-15T02:46:23.213Z,92.51
2023-04-15T02:48:50.852Z,92.43
2023-04-15T02:51:20.876Z,91.43
2023-04-15T02:53:49.238Z,92.32
2023-04-15T02:56:17.561Z,92.33
2023-04-15T02:58:45.928Z,92.13
2023-04-15T03:01:12.952Z,91.84
2023-04-15T03:03:40.049Z,92.54
2023-04-15T03:06:07.188Z,93.17
2023-04-15T03:08:34.069Z,94.19
2023-04-15T03:11:02.688Z,94.23
2023-04-15T03:13:29.545Z,93.84
2023-04-15T03:15:56.451Z,94.25
2023-04-15T03:18:23.798Z,94.19
2023-04-15T03:20:50.801Z,93.92
2023-04-15T03:23:17.807Z,94.04
2023-04-15T03:25:45.909Z,94.70
2023-04-15T03:28:12.750Z,95.06
2023-04-15T03:30:39.622Z,94.32
2023-04-15T03:33:06.420Z,94.89
2023-04-15T03:35:33.279Z,95.48
2023-04-15T03:38:00.112Z,94.81
2023-04-15T03:40:27.237Z,94.91
2023-04-15T03:42:54.130Z,94.28
2023-04-15T03:45:21.029Z,94.36
2023-04-15T03:47:47.945Z,93.98
2023-04-15T03:50:14.873Z,94.17
2023-04-15T03:52:41.758Z,93.57
2023-04-15T03:55:10.019Z,93.95
2023-04-15T03:57:39.366Z,94.75
2023-04-15T04:00:09.448Z,95.32
2023-04-15T04:02:36.878Z,95.60
2023-04-15T04:05:04.507Z,95.40
2023-04-15T04:07:31.308Z,95.27
2023-04-15T04:09:58.556Z,94.97
2023-04-15T04:12:25.585Z,95.20
2023-04-15T04:14:52.405Z,94.97
2023-04-15T04:17:19.356Z,95.21
2023-04-15T04:19:46.620Z,95.81
2023-04-15T04:22:13.452Z,96.16
2023-04-15T04:24:40.269Z,96.52
2023-04-15T04:27:07.099Z,96.26
2023-04-15T04:29:33.971Z,95.51
2023-04-15T04:32:00.899Z,96.07
2023-04-15T04:34:27.780Z,96.68
2023-04-15T04:36:54.651Z,96.69
2023-04-15T04:39:21.454Z,96.40
2023-04-15T04:41:48.309Z,96.76
2023-04-15T04:44:15.102Z,96.57
2023-04-15T04:46:41.913Z,96.38
2023-04-15T04:49:08.754Z,95.82
2023-04-15T04:51:35.907Z,96.96
2023-04-15T04:54:03.808Z,96.94
2023-04-15T04:56:34.863Z,96.79
2023-04-15T04:59:02.201Z,97.15
2023-04-15T05:01:29.255Z,97.25
2023-04-15T05:03:56.633Z,96.45
2023-04-15T05:06:23.813Z,96.40
2023-04-15T05:08:51.584Z,96.51
2023-04-15T05:11:18.398Z,96.55
2023-04-15T05:13:45.321Z,97.10
2023-04-15T05:16:12.599Z,98.13
2023-04-15T05:18:39.474Z,98.22
2023-04-15T05:21:06.958Z,97.57
2023-04-15T05:23:34.258Z,97.08
2023-04-15T05:26:01.346Z,97.39
2023-04-15T05:28:28.228Z,96.95
2023-04-15T05:30:55.646Z,97.14
2023-04-15T05:33:22.684Z,97.15
2023-04-15T05:35:49.563Z,96.65
2023-04-15T05:38:16.433Z,97.08
2023-04-15T05:40:43.257Z,97.71
2023-04-15T05:43:10.054Z,97.57
2023-04-15T05:45:36.899Z,97.18
2023-04-15T05:48:03.894Z,97.17
2023-04-15T05:50:30.716Z,97.23
2023-04-15T05:52:57.664Z,97.40
2023-04-15T05:55:24.512Z,97.01
2023-04-15T05:57:51.401Z,97.19
2023-04-15T06:00:18.433Z,96.89
2023-04-15T06:02:45.548Z,97.45
2023-04-15T06:05:12.792Z,97.38
2023-04-15T06:07:39.892Z,96.91
2023-04-15T06:10:08.084Z,96.57
2023-04-15T06:12:35.046Z,96.89
2023-04-15T06:15:02.161Z,96.98
2023-04-15T06:17:29.097Z,97.56
2023-04-15T06:19:56.301Z,97.22
2023-04-15T06:22:24.015Z,97.64
2023-04-15T06:24:51.689Z,97.91
2023-04-15T06:27:18.921Z,98.20
2023-04-15T06:29:45.953Z,98.59
2023-04-15T06:32:13.318Z,98.78
2023-04-15T06:34:40.241Z,99.53
2023-04-15T06:37:07.339Z,100.00
2023-04-15T06:39:34.275Z,100.00
2023-04-15T06:42:01.784Z,100.00
2023-04-15T06:44:30.376Z,100.00
2023-04-15T06:46:58.033Z,100.00
2023-04-15T06:49:24.944Z,99.51
2023-04-15T06:51:51.849Z,98.98
2023-04-15T06:54:19.072Z,99.17
2023-04-15T06:56:46.028Z,98.18
2023-04-15T06:59:13.110Z,98.20
2023-04-15T07:01:42.262Z,98.79
2023-04-15T07:04:09.284Z,98.16
2023-04-15T07:06:36.153Z,97.85
2023-04-15T07:09:05.520Z,97.57
2023-04-15T07:11:32.615Z,96.75
2023-04-15T07:13:59.422Z,95.97
2023-04-15T07:16:27.850Z,95.16
2023-04-15T07:18:56.422Z,95.64
2023-04-15T07:21:24.104Z,94.99
2023-04-15T07:23:51.178Z,95.52
2023-04-15T07:26:18.005Z,94.76
2023-04-15T07:28:46.529Z,94.00
2023-04-15T07:31:14.019Z,92.88
2023-04-15T07:33:40.890Z,92.72
2023-04-15T07:36:08.113Z,93.11
2023-04-15T07:38:35.038Z,92.75
2023-04-15T07:41:01.986Z,91.35
2023-04-15T07:43:28.862Z,92.13
2023-04-15T07:45:55.832Z,91.45
2023-04-15T07:48:22.685Z,90.89
2023-04-15T07:50:49.527Z,90.37
2023-04-15T07:53:16.344Z,90.58
2023-04-15T07:55:43.152Z,90.50
2023-04-15T07:58:09.959Z,89.74
2023-04-15T08:00:38.650Z,89.52
2023-04-15T08:03:05.639Z,87.48
2023-04-15T08:05:32.560Z,87.46
2023-04-15T08:07:59.508Z,87.00
2023-04-15T08:10:26.454Z,86.04
2023-04-15T08:12:54.670Z,85.29
2023-04-15T08:15:21.912Z,84.36
2023-04-15T08:17:48.911Z,82.97
2023-04-15T08:20:15.791Z,84.19
2023-04-15T08:22:42.823Z,83.73
2023-04-15T08:25:10.562Z,83.15
2023-04-15T08:27:37.748Z,81.06
2023-04-15T08:30:05.458Z,79.30
2023-04-15T08:32:32.440Z,80.58
2023-04-15T08:34:59.391Z,79.34
2023-04-15T08:37:26.962Z,76.42
2023-04-15T08:39:53.880Z,75.56
2023-04-15T08:42:28.724Z,75.71
2023-04-15T08:44:55.883Z,75.89
2023-04-15T08:47:27.486Z,76.94
2023-04-15T08:49:55.914Z,74.71
2023-04-15T08:52:22.855Z,74.43
2023-04-15T08:54:49.709Z,73.95
2023-04-15T08:57:16.856Z,72.73
2023-04-15T08:59:44.795Z,74.30
2023-04-15T09:02:12.451Z,73.63
2023-04-15T09:04:39.309Z,72.05
2023-04-15T09:07:06.389Z,68.25
2023-04-15T09:09:33.241Z,68.58
2023-04-15T09:12:01.902Z,68.28
2023-04-15T09:14:32.298Z,67.79
2023-04-15T09:17:04.813Z,63.20
2023-04-15T09:19:34.301Z,59.35
2023-04-15T09:22:01.435Z,58.33
2023-04-15T09:24:40.554Z,58.49
2023-04-15T09:27:07.801Z,58.82
2023-04-15T09:29:34.769Z,57.68
2023-04-15T09:32:13.096Z,57.93
2023-04-15T09:34:40.029Z,57.74
2023-04-15T09:37:08.065Z,54.76
2023-04-15T09:39:52.243Z,54.33
2023-04-15T09:42:27.084Z,53.17
2023-04-15T09:44:54.159Z,49.65
2023-04-15T09:47:31.668Z,48.79
2023-04-15T09:50:00.476Z,45.51
2023-04-15T09:52:29.024Z,46.30
2023-04-15T09:54:58.901Z,45.84
2023-04-15T09:57:26.050Z,46.55
2023-04-15T09:59:52.988Z,45.62
2023-04-15T10:02:23.477Z,45.20
2023-04-15T10:04:51.968Z,45.92
2023-04-15T10:07:22.644Z,45.66
2023-04-15T10:09:49.927Z,47.32
2023-04-15T10:12:20.604Z,47.38
2023-04-15T10:15:05.301Z,44.95
2023-04-15T10:17:35.681Z,47.25
2023-04-15T10:20:05.025Z,44.99
2023-04-15T10:22:33.396Z,46.68
2023-04-15T10:25:01.320Z,46.26
2023-04-15T10:27:29.220Z,46.47
2023-04-15T10:29:57.448Z,45.97
2023-04-15T10:32:25.919Z,44.78
2023-04-15T10:34:54.707Z,43.90
2023-04-15T10:37:25.881Z,43.94
2023-04-15T10:39:52.701Z,43.20
2023-04-15T10:42:20.322Z,43.79
2023-04-15T10:44:52.501Z,42.76
2023-04-15T10:47:21.889Z,44.66
2023-04-15T10:50:00.577Z,40.84
2023-04-15T10:52:29.568Z,41.15
2023-04-15T10:55:20.460Z,39.50
2023-04-15T10:57:47.350Z,40.28
2023-04-15T11:00:16.701Z,40.15
2023-04-15T11:03:08.607Z,38.85
2023-04-15T11:05:41.635Z,40.55
2023-04-15T11:08:10.575Z,40.75
2023-04-15T11:10:37.306Z,39.42
2023-04-15T11:13:08.167Z,39.78
2023-04-15T11:15:45.729Z,39.06
2023-04-15T11:18:15.349Z,38.04
2023-04-15T11:20:48.484Z,39.42
2023-04-15T11:23:16.193Z,38.33
2023-04-15T11:25:44.382Z,37.23
2023-04-15T11:28:13.363Z,37.91
2023-04-15T11:30:41.321Z,36.53
2023-04-15T11:33:12.594Z,36.70
2023-04-15T11:35:42.258Z,36.36
2023-04-15T11:38:12.613Z,36.22
2023-04-15T11:40:41.078Z,35.24
2023-04-15T11:43:12.224Z,35.63
2023-04-15T11:46:02.094Z,36.59
2023-04-15T11:48:33.401Z,36.20
2023-04-15T11:51:08.325Z,34.62
2023-04-15T11:53:49.748Z,32.75
2023-04-15T11:56:25.183Z,33.22
2023-04-15T11:59:00.951Z,32.44
2023-04-15T12:01:42.929Z,32.04
2023-04-15T12:04:14.334Z,31.24
2023-04-15T12:06:41.480Z,30.96
2023-04-15T12:09:16.926Z,31.77
2023-04-15T12:11:47.590Z,30.95
2023-04-15T12:14:24.556Z,31.99
2023-04-15T12:16:54.707Z,31.96
2023-04-15T12:19:29.656Z,33.22
2023-04-15T12:22:04.389Z,33.68
2023-04-15T12:24:36.393Z,34.03
2023-04-15T12:27:09.235Z,35.24
2023-04-15T12:29:39.906Z,33.94
2023-04-15T12:32:17.488Z,34.64
2023-04-15T12:34:53.376Z,35.83
2023-04-15T12:37:20.631Z,35.75
2023-04-15T12:39:49.642Z,35.32
2023-04-15T12:42:17.882Z,36.22
2023-04-15T12:44:45.175Z,36.02
2023-04-15T12:47:13.521Z,37.15
2023-04-15T12:49:41.410Z,37.89
2023-04-15T12:52:09.583Z,37.23
2023-04-15T12:54:36.609Z,37.09
2023-04-15T12:57:06.854Z,37.84
2023-04-15T12:59:34.750Z,37.35
2023-04-15T13:02:03.096Z,37.58
2023-04-15T13:04:33.062Z,38.65
2023-04-15T13:07:00.101Z,37.70
2023-04-15T13:09:27.287Z,37.40
2023-04-15T13:11:54.718Z,36.68
2023-04-15T13:14:21.813Z,36.97
2023-04-15T13:16:50.491Z,36.54
2023-04-15T13:19:17.353Z,37.34
2023-04-15T13:21:44.218Z,38.75
2023-04-15T13:24:11.056Z,38.67
2023-04-15T13:26:38.183Z,38.49
2023-04-15T13:29:05.208Z,36.90
2023-04-15T13:31:32.129Z,35.47
2023-04-15T13:33:59.022Z,36.53
2023-04-15T13:36:26.635Z,34.92
2023-04-15T13:38:53.586Z,36.56
2023-04-15T13:41:21.400Z,35.85
2023-04-15T13:43:48.281Z,36.26
2023-04-15T13:46:15.353Z,36.94
2023-04-15T13:48:42.458Z,37.72
2023-04-15T13:51:09.365Z,36.74
2023-04-15T13:53:38.973Z,36.94
2023-04-15T13:56:09.908Z,37.61
2023-04-15T13:58:37.997Z,37.40
2023-04-15T14:01:06.954Z,37.93
2023-04-15T14:03:36.543Z,38.23
2023-04-15T14:06:04.522Z,38.48
2023-04-15T14:08:31.890Z,39.33
2023-04-15T14:10:58.915Z,38.84
2023-04-15T14:13:25.853Z,39.27
2023-04-15T14:15:52.857Z,40.59
2023-04-15T14:18:19.718Z,40.81
2023-04-15T14:20:46.866Z,41.40
2023-04-15T14:23:13.684Z,42.57
2023-04-15T14:25:40.681Z,43.35
2023-04-15T14:28:07.592Z,42.71
2023-04-15T14:30:34.628Z,42.81
2023-04-15T14:33:01.642Z,43.17
2023-04-15T14:35:28.975Z,43.12
2023-04-15T14:37:55.984Z,43.71
2023-04-15T14:40:23.361Z,44.03
2023-04-15T14:42:50.234Z,45.35
2023-04-15T14:45:17.969Z,46.16
2023-04-15T14:47:45.327Z,47.26
2023-04-15T14:50:12.308Z,48.56
2023-04-15T14:52:39.399Z,49.05
2023-04-15T14:55:11.297Z,49.35
2023-04-15T14:57:39.211Z,49.72
2023-04-15T15:00:07.766Z,50.63
2023-04-15T15:02:39.197Z,50.31
2023-04-15T15:05:08.609Z,51.01
2023-04-15T15:07:37.404Z,50.55
2023-04-15T15:10:05.167Z,50.74
2023-04-15T15:12:33.455Z,51.76
2023-04-15T15:15:01.579Z,53.02
2023-04-15T15:17:30.172Z,55.01
2023-04-15T15:19:57.643Z,55.49
2023-04-15T15:22:26.000Z,57.20
2023-04-15T15:24:53.724Z,58.83
2023-04-15T15:27:20.889Z,59.18
2023-04-15T15:29:47.862Z,58.27
2023-04-15T15:32:14.670Z,58.12
2023-04-15T15:34:41.537Z,57.72
2023-04-15T15:37:08.385Z,58.14
2023-04-15T15:39:36.145Z,58.66
2023-04-15T15:42:03.079Z,57.99
2023-04-15T15:44:29.918Z,58.03
2023-04-15T15:46:56.790Z,58.35
2023-04-15T15:49:25.504Z,57.73
2023-04-15T15:51:52.329Z,57.81
2023-04-15T15:54:19.179Z,57.68
2023-04-15T15:56:46.023Z,58.02
2023-04-15T15:59:12.867Z,57.93
2023-04-15T16:01:39.764Z,58.12
2023-04-15T16:04:07.170Z,58.12
2023-04-15T16:06:35.375Z,57.94
2023-04-15T16:09:02.829Z,58.41
2023-04-15T16:11:30.181Z,58.44
2023-04-15T16:13:57.074Z,56.29
2023-04-15T16:16:24.465Z,56.42
2023-04-15T16:18:51.300Z,54.89
2023-04-15T16:21:18.209Z,54.77
2023-04-15T16:23:45.305Z,53.76
2023-04-15T16:26:12.136Z,53.85
2023-04-15T16:28:38.978Z,52.28
2023-04-15T16:31:05.911Z,51.53
2023-04-15T16:33:32.760Z,50.84
2023-04-15T16:35:59.591Z,50.76
2023-04-15T16:38:26.530Z,50.67
2023-04-15T16:40:53.409Z,50.43
2023-04-15T16:43:20.276Z,50.26
2023-04-15T16:45:51.467Z,49.57
2023-04-15T16:48:19.957Z,50.45
2023-04-15T16:50:47.498Z,49.95
2023-04-15T16:53:16.206Z,48.97
2023-04-15T16:55:43.040Z,49.52
2023-04-15T16:58:09.898Z,49.68
2023-04-15T17:00:37.267Z,49.93
2023-04-15T17:03:06.475Z,49.50
2023-04-15T17:05:33.700Z,49.14
2023-04-15T17:08:00.906Z,50.20
2023-04-15T17:10:28.361Z,49.80
2023-04-15T17:12:58.549Z,49.99
2023-04-15T17:15:26.289Z,50.05
2023-04-15T17:17:53.363Z,50.46
2023-04-15T17:20:20.596Z,50.92
2023-04-15T17:22:48.768Z,51.04
2023-04-15T17:25:15.870Z,51.52
2023-04-15T17:27:42.854Z,52.16
2023-04-15T17:30:10.158Z,52.25
2023-04-15T17:32:37.434Z,52.39
2023-04-15T17:35:06.700Z,53.06
2023-04-15T17:37:34.535Z,54.10
2023-04-15T17:40:01.527Z,54.65
2023-04-15T17:42:28.549Z,54.47
2023-04-15T17:44:55.393Z,54.83
2023-04-15T17:47:22.293Z,55.21
2023-04-15T17:49:49.114Z,55.75
2023-04-15T17:52:15.939Z,56.11
2023-04-15T17:54:42.821Z,57.13
2023-04-15T17:57:09.911Z,58.33
2023-04-15T17:59:36.797Z,58.07
2023-04-15T18:02:03.780Z,58.52
2023-04-15T18:04:31.015Z,59.25
2023-04-15T18:06:58.022Z,59.41
2023-04-15T18:09:24.910Z,60.14
2023-04-15T18:11:51.810Z,61.56
2023-04-15T18:14:33.020Z,61.38
2023-04-15T18:17:01.578Z,62.15
2023-04-15T18:19:28.546Z,62.44
2023-04-15T18:21:55.399Z,62.33
2023-04-15T18:24:22.794Z,64.28
2023-04-15T18:26:49.717Z,63.84
2023-04-15T18:29:16.692Z,65.00
2023-04-15T18:31:43.937Z,64.69
2023-04-15T18:34:10.990Z,66.80
2023-04-15T18:36:37.891Z,67.73
2023-04-15T18:39:05.351Z,67.65
2023-04-15T18:41:32.536Z,69.54
2023-04-15T18:43:59.433Z,69.56
2023-04-15T18:46:26.302Z,69.26
2023-04-15T18:48:53.144Z,69.60
2023-04-15T18:51:20.087Z,70.30
2023-04-15T18:53:46.913Z,72.48
2023-04-15T18:56:13.793Z,70.97
2023-04-15T18:59:08.631Z,71.84
2023-04-15T19:01:27.492Z,72.79
2023-04-15T19:03:54.390Z,74.51
2023-04-15T19:06:22.413Z,74.98
2023-04-15T19:08:49.322Z,74.73
2023-04-15T19:11:16.228Z,76.55
2023-04-15T19:13:43.127Z,75.45
2023-04-15T19:16:10.004Z,78.67
2023-04-15T19:18:36.894Z,76.94
2023-04-15T19:21:04.288Z,77.91
2023-04-15T19:23:32.057Z,78.58
2023-04-15T19:25:59.130Z,80.32
2023-04-15T19:28:28.346Z,81.27
2023-04-15T19:30:55.425Z,81.54
2023-04-15T19:33:22.292Z,82.45
2023-04-15T19:35:50.268Z,83.72
2023-04-15T19:38:17.284Z,83.88
2023-04-15T19:40:44.303Z,83.80
2023-04-15T19:43:11.246Z,83.92
2023-04-15T19:45:38.118Z,86.33
2023-04-15T19:48:06.357Z,88.81
2023-04-15T19:50:33.297Z,88.43
2023-04-15T19:53:00.179Z,89.32
2023-04-15T19:55:27.134Z,89.23
2023-04-15T19:57:53.943Z,89.75
2023-04-15T20:00:21.111Z,90.05
2023-04-15T20:02:48.222Z,92.02
2023-04-15T20:05:15.377Z,91.39
2023-04-15T20:07:42.822Z,91.72
2023-04-15T20:10:13.277Z,92.67
2023-04-15T20:12:50.747Z,92.21
2023-04-15T20:15:19.439Z,94.44
2023-04-15T20:17:46.371Z,94.98
2023-04-15T20:20:13.285Z,94.23
2023-04-15T20:22:40.108Z,93.28
2023-04-15T20:25:07.718Z,92.66
2023-04-15T20:27:34.577Z,92.22
2023-04-15T20:30:01.462Z,93.15
2023-04-15T20:32:28.625Z,93.06
2023-04-15T20:34:55.552Z,93.43
2023-04-15T20:37:22.576Z,93.31
2023-04-15T20:39:49.571Z,93.49
2023-04-15T20:42:16.427Z,93.67
2023-04-15T20:44:43.292Z,94.28
2023-04-15T20:47:10.660Z,94.64
2023-04-15T20:49:39.094Z,94.42
2023-04-15T20:52:08.074Z,93.80
2023-04-15T20:54:34.992Z,94.13
2023-04-15T20:57:02.149Z,94.72
2023-04-15T20:59:29.020Z,96.11
2023-04-15T21:01:57.204Z,95.39
2023-04-15T21:04:25.235Z,95.04
2023-04-15T21:06:55.082Z,95.10
2023-04-15T21:09:21.937Z,95.19
2023-04-15T21:14:19.420Z,94.95
2023-04-15T21:16:46.495Z,95.63
2023-04-15T21:19:14.957Z,95.91
2023-04-15T21:21:41.835Z,96.14
2023-04-15T21:24:08.699Z,96.36
2023-04-15T21:26:36.393Z,96.71
2023-04-15T21:29:03.604Z,96.67
2023-04-15T21:31:30.726Z,96.79
2023-04-15T21:33:57.653Z,97.24
2023-04-15T21:36:24.548Z,96.95
2023-04-15T21:38:51.437Z,97.35
2023-04-15T21:41:18.313Z,97.92
2023-04-15T21:43:45.158Z,97.67
2023-04-15T21:46:23.292Z,98.71
2023-04-15T21:48:53.572Z,98.21
2023-04-15T21:51:20.711Z,97.55
2023-04-15T21:53:47.718Z,97.86
2023-04-15T21:56:14.843Z,97.69
2023-04-15T21:58:41.786Z,97.58
2023-04-15T22:01:08.790Z,97.50
2023-04-15T22:03:35.890Z,97.60
2023-04-15T22:06:04.034Z,96.90
2023-04-15T22:08:38.671Z,96.70
2023-04-15T22:11:28.758Z,96.91
2023-04-15T22:13:59.467Z,96.99
2023-04-15T22:16:27.169Z,97.05
2023-04-15T22:18:54.995Z,97.47
2023-04-15T22:21:22.061Z,98.07
2023-04-15T22:23:49.900Z,97.31
2023-04-15T22:26:16.869Z,98.07
2023-04-15T22:28:43.789Z,97.86
2023-04-15T22:31:10.743Z,97.33
2023-04-15T22:33:37.654Z,98.35
2023-04-15T22:36:04.513Z,98.36
2023-04-15T22:38:31.509Z,98.94
2023-04-15T22:40:58.623Z,100.00
2023-04-15T22:43:26.105Z,100.00
2023-04-15T22:45:55.190Z,100.00
2023-04-15T22:48:22.653Z,100.00
2023-04-15T22:50:49.924Z,100.00
2023-04-15T22:53:20.271Z,100.00
2023-04-15T22:55:48.328Z,99.96
2023-04-15T22:58:16.470Z,100.00
2023-04-15T23:00:43.376Z,100.00
2023-04-15T23:03:10.603Z,100.00
2023-04-15T23:05:37.933Z,100.00
2023-04-15T23:08:04.776Z,100.00
2023-04-15T23:10:31.755Z,100.00
2023-04-15T23:12:58.694Z,100.00
2023-04-15T23:15:25.925Z,100.00
2023-04-15T23:17:52.911Z,100.00
2023-04-15T23:20:19.866Z,100.00
2023-04-15T23:22:46.770Z,100.00
2023-04-15T23:25:13.675Z,100.00
2023-04-15T23:27:40.498Z,100.00
2023-04-15T23:30:08.120Z,100.00
2023-04-15T23:32:35.207Z,100.00
2023-04-15T23:35:02.121Z,100.00
2023-04-15T23:37:31.892Z,100.00
2023-04-15T23:39:58.767Z,100.00
2023-04-15T23:42:26.146Z,100.00
2023-04-15T23:44:53.261Z,100.00
2023-04-15T23:47:20.135Z,100.00
2023-04-15T23:49:47.018Z,100.00
2023-04-15T23:52:13.988Z,100.00
2023-04-15T23:54:40.997Z,100.00
2023-04-15T23:57:09.121Z,100.00
2023-04-15T23:59:36.190Z,100.00
